AirNav   Pilot Hours Calculator
 
 1169 users online  

WV77 Hinton-Alderson Airport
Pence Springs, West Virginia, USA

GOING TO PENCE SPRINGS?


FAA INFORMATION EFFECTIVE 08 SEPTEMBER 2022

Location

FAA Identifier: WV77
Lat/Long: 37-40-46.4340N 080-42-37.2890W
37-40.773900N 080-42.621483W
37.6795650,-80.7103581
(estimated)
Elevation: 1520 ft. / 463.3 m (surveyed)
Variation: 06W (1985)
From city: 1 mile E of PENCE SPRINGS, WV
Time zone: UTC -4 (UTC -5 during Standard Time)
Zip code: 24910

Airport Operations

Airport use: Private use. Permission required prior to landing
Activation date: 10/1938
Control tower: no
ARTCC: WASHINGTON CENTER
FSS: ELKINS FLIGHT SERVICE STATION [703-724-4288]
Attendance: IREG
DEC - APR RWY MAY BE UNUSBL. CALL PRIOR.
Wind indicator: yes
Segmented circle: no

Airport Communications

WX AWOS-3 at LWB (18 nm NE): 121.4 (304-645-4533)

Nearby radio navigation aids

VOR radial/distance  VOR name  Freq  Var
RNLr170/(18.3)RAINELLE VOR116.6004W
BKWr113/20.5BECKLEY VOR/DME117.7006W
BLFr049/32.1BLUEFIELD VOR/DME115.0503W
PSKr006/35.5PULASKI VORTAC116.8006W
ROAr308/36.5ROANOKE VOR/DME109.4004W

 
NDB name  Hdg/Dist  Freq  Var  ID
BUSHI250/13.034608WLW .-.. .--
TECH341/31.836808WTEC - . -.-.

Airport Services

Parking: hangars and tiedowns
Bottled oxygen: NONE
Bulk oxygen: NONE

Runway Information

Runway 10/28

Dimensions: 2700 x 25 ft. / 823 x 8 m
Surface: turf, in good condition
RUNWAY 10  RUNWAY 28
Traffic pattern: leftleft
Obstructions: 35 ft. trees, 40 ft. from runway, 125 ft. right of centerline, 1:1 slope to clear55 ft. trees, 100 ft. left of centerline

Airport Ownership and Management from official FAA records

Ownership: Privately-owned
Owner: JAMES TOLLEY ESTATE TRUST
C/O ON COURSE AVIATION LLC, 4445 CORPORATION LANE STE 264
VIRGINIA BEACH, VA 23462
Phone 757-593-3244
Manager: MICHAEL R. GWINN
308 LONGVIEW AVE
LEWISBURG, WV 24901
Phone 757-593-3244
EMAIL MIKE.GWINN@ONCOURSEAVIATIONLLC.COM

Airport Operational Statistics

Aircraft based on the field: 11
Single engine airplanes: 5
Ultralights: 6
    
Aircraft operations: avg 43/week *
89% local general aviation
11% transient general aviation
* for 12-month period ending 06 March 2000

Additional Remarks

RWY 28 25 FT POLE WIRES 170 FT FROM THR 120 FT R.
FOR CD CTC WASHINGTON ARTCC AT 703-771-3587.

Instrument Procedures

There are no published instrument procedures at WV77.

Some nearby airports with instrument procedures:

KLWB - Greenbrier Valley Airport (18 nm NE)
KBKW - Raleigh County Memorial Airport (21 nm W)
KBCB - Virginia Tech/Montgomery Executive Airport (32 nm SE)
KPSK - New River Valley Airport (33 nm S)
KBLF - Mercer County Airport (33 nm SW)
 
Loc | Ops | Rwys | IFR | FBO | Links
Com | Nav | Svcs | Stats | Notes
Area around WV77 (Hinton-Alderson Airport)
 
Road maps at: MapQuest Bing Google
 
Aerial photo
WARNING: Photo may not be current or correct
Aerial photo of WV77 (Hinton-Alderson Airport)
Do you have a better or more recent aerial photo of Hinton-Alderson Airport that you would like to share? If so, please send us your photo.

 
Sectional chart

 
Airport distance calculator
Flying to Hinton-Alderson Airport? Find the distance to fly.

From to WV77

Sunrise and sunset
Times for 28-Sep-2022
 Local
(UTC-4)
 Zulu
(UTC)
Morning civil twilight06:5110:51
Sunrise07:1711:17
Sunset19:1023:10
Evening civil twilight19:3623:36

Current date and time
Zulu (UTC)  29-Sep-2022 03:18:51
Local (UTC-4)  28-Sep-2022 23:18:51
 
METAR
KLWB 
19nm NE 
290255Z AUTO 00000KT 10SM CLR 06/05 A3037 RMK AO2 T00620049
KBKW 
21nm W 
290251Z AUTO 01004KT 10SM SCT014 BKN022 BKN027 08/06 A3038 RMK AO2 SLP289 T00830061 51012
KBCB 
31nm SE 
290255Z AUTO 35007KT 10SM CLR 10/06 A3037 RMK AO2 T01030055
KBLF 
33nm SW 
290252Z AUTO 00000KT 10SM CLR 05/04 A3037 RMK AO2 SLP283 T00500039 51012
KPSK 
34nm S 
290255Z AUTO 02004KT 10SM CLR 09/06 A3034 RMK AO2 T00910057
TAF
KLWB 
19nm NE 
281722Z 2818/2918 34010KT P6SM SCT025 FM282300 VRB03KT P6SM SCT250 FM291000 VRB03KT 3/4SM BR SCT025 FM291500 05007KT P6SM SCT250
KBKW 
21nm W 
281739Z 2818/2918 35008KT P6SM SCT035 FM282300 36007KT P6SM SCT070 FM291000 VRB03KT P6SM SCT022 FM291500 04008KT P6SM SCT050
NOTAMs
Click for the latest NOTAMs
NOTAMs are issued by the DoD/FAA and will open in a separate window not controlled by AirNav.

 

 
 

Would you like to see your business listed on this page?

 If your business provides an interesting product or service to pilots, flight crews, aircraft, or users of the Hinton-Alderson Airport, you should consider listing it here.  To start the listing process, click on the button below
 
Add a business
 

Other Pages about Hinton-Alderson Airport

Update a link
 
Copyright © AirNav, LLC. All rights reserved. Privacy Policy  Contact